Time;durP1;ratioP1;P1;durP2;ratioP2;P2;SDS_P1;SDS_P2;PMS_P1;PMS_P2;Temp;Humidity;BMP_temperature;BMP_pressure;BME280_temperature;BME280_humidity;BME280_pressure;Samples;Min_cycle;Max_cycle;Signal;HPM_P1;HPM_P2
2021/05/03 00:00:07;;;;;;;1.73;1.25;;;20.90;46.00;;;;;;5036056;28;20036;-34
2021/05/03 00:02:35;;;;;;;1.15;1.05;;;20.90;46.00;;;;;;5031506;28;20103;-35
2021/05/03 00:05:01;;;;;;;1.92;1.10;;;20.90;46.00;;;;;;5014768;28;20053;-34
2021/05/03 00:07:26;;;;;;;2.67;1.00;;;20.90;46.00;;;;;;5011798;28;20810;-35
2021/05/03 00:09:52;;;;;;;1.85;0.80;;;20.90;46.00;;;;;;4994330;28;20525;-34
2021/05/03 00:12:18;;;;;;;2.22;1.20;;;20.80;45.90;;;;;;5029531;28;20055;-46
2021/05/03 00:14:43;;;;;;;1.17;1.08;;;20.90;46.60;;;;;;5013579;28;20079;-34
2021/05/03 00:17:09;;;;;;;1.75;1.00;;;20.80;45.90;;;;;;5031383;28;20100;-45
2021/05/03 00:19:36;;;;;;;1.20;0.80;;;20.80;45.90;;;;;;5016366;28;20028;-34
2021/05/03 00:22:02;;;;;;;3.10;0.90;;;20.80;45.90;;;;;;5035308;28;20033;-34
2021/05/03 00:24:28;;;;;;;1.70;0.93;;;20.80;45.80;;;;;;5034589;28;20084;-34
2021/05/03 00:26:54;;;;;;;0.85;0.85;;;20.80;45.80;;;;;;5017819;28;20021;-34
2021/05/03 00:29:19;;;;;;;1.25;0.93;;;20.80;45.80;;;;;;5012878;28;20034;-47
2021/05/03 00:31:45;;;;;;;1.20;0.90;;;20.80;45.80;;;;;;5002931;28;20048;-34
2021/05/03 00:34:11;;;;;;;1.33;1.02;;;20.80;45.80;;;;;;5033266;28;20045;-34
2021/05/03 00:36:37;;;;;;;1.35;0.95;;;20.80;45.70;;;;;;5032193;28;20065;-35
2021/05/03 00:39:04;;;;;;;1.23;1.10;;;20.80;45.70;;;;;;5016318;28;20021;-34
2021/05/03 00:41:30;;;;;;;1.77;0.90;;;20.80;45.70;;;;;;5031770;28;20529;-35
2021/05/03 00:43:55;;;;;;;1.83;0.80;;;20.80;45.70;;;;;;5016244;28;20057;-34
2021/05/03 00:46:22;;;;;;;1.42;0.93;;;20.80;45.70;;;;;;5015748;28;20140;-47
2021/05/03 00:48:48;;;;;;;1.52;1.00;;;20.80;45.70;;;;;;5032738;28;20052;-34
2021/05/03 00:51:14;;;;;;;4.75;0.98;;;20.80;45.70;;;;;;5032810;28;20076;-34
2021/05/03 00:53:40;;;;;;;1.50;1.00;;;20.80;45.60;;;;;;5048811;28;20080;-34
2021/05/03 00:56:08;;;;;;;3.70;1.00;;;20.80;45.70;;;;;;5052481;28;20036;-34
2021/05/03 00:58:34;;;;;;;1.38;1.00;;;20.80;45.60;;;;;;5039196;28;20063;-34
2021/05/03 01:01:00;;;;;;;1.30;0.93;;;20.80;45.60;;;;;;5030226;28;20045;-35
2021/05/03 01:03:26;;;;;;;2.20;1.02;;;20.80;45.60;;;;;;5029308;28;20521;-40
2021/05/03 01:05:52;;;;;;;2.10;1.20;;;20.80;45.60;;;;;;5017965;28;20065;-34
2021/05/03 01:08:17;;;;;;;1.52;0.75;;;20.80;46.20;;;;;;5053143;28;20033;-35
2021/05/03 01:10:43;;;;;;;1.40;1.10;;;20.80;45.60;;;;;;5051827;28;20013;-35
2021/05/03 01:13:09;;;;;;;1.83;0.90;;;20.80;45.50;;;;;;5034649;28;20548;-35
2021/05/03 01:15:34;;;;;;;1.13;1.02;;;20.80;45.50;;;;;;5051966;28;20377;-38
2021/05/03 01:18:02;;;;;;;1.80;1.17;;;20.80;45.50;;;;;;5052637;28;20373;-35
2021/05/03 01:20:33;;;;;;;1.10;0.80;;;20.80;45.50;;;;;;5051879;28;20032;-35
2021/05/03 01:23:00;;;;;;;1.33;0.80;;;20.80;45.50;;;;;;5033207;28;20397;-35
2021/05/03 01:25:30;;;;;;;1.55;0.90;;;20.80;45.50;;;;;;5048773;28;20040;-35
2021/05/03 01:27:56;;;;;;;1.10;0.88;;;20.80;45.40;;;;;;5030817;28;20480;-35
2021/05/03 01:30:30;;;;;;;1.10;1.00;;;20.80;45.40;;;;;;5051325;28;20051;-48
2021/05/03 01:32:56;;;;;;;1.83;1.05;;;20.80;45.40;;;;;;5054132;28;20032;-34
2021/05/03 01:35:22;;;;;;;2.10;1.10;;;20.80;45.30;;;;;;5035646;28;20025;-46
2021/05/03 01:37:52;;;;;;;1.75;0.82;;;20.80;45.30;;;;;;5035958;28;20031;-34
2021/05/03 01:40:19;;;;;;;1.52;1.17;;;20.70;45.30;;;;;;5054210;28;20108;-34
2021/05/03 01:42:45;;;;;;;2.65;1.20;;;20.80;45.40;;;;;;5035525;28;20040;-34
2021/05/03 01:45:12;;;;;;;1.77;1.00;;;20.80;45.30;;;;;;5054380;28;20025;-34
2021/05/03 01:47:39;;;;;;;1.40;1.17;;;20.80;45.30;;;;;;5052867;28;20025;-34
2021/05/03 01:50:06;;;;;;;1.30;1.10;;;20.80;45.30;;;;;;5036278;28;20527;-34
2021/05/03 01:52:34;;;;;;;3.20;1.05;;;20.80;45.30;;;;;;5052783;28;20045;-35
2021/05/03 01:54:59;;;;;;;1.60;0.80;;;20.80;45.30;;;;;;5053975;28;20094;-34
2021/05/03 01:57:25;;;;;;;1.10;0.90;;;20.80;45.30;;;;;;5052624;28;20029;-35
2021/05/03 01:59:53;;;;;;;0.90;0.73;;;20.70;45.20;;;;;;5053798;28;20377;-34
2021/05/03 02:02:18;;;;;;;1.30;1.10;;;20.80;45.20;;;;;;5053886;28;20029;-34
2021/05/03 02:04:44;;;;;;;1.35;1.00;;;20.80;45.20;;;;;;5052677;28;20029;-35
2021/05/03 02:07:13;;;;;;;1.52;1.10;;;20.80;45.20;;;;;;5053459;28;20082;-34
2021/05/03 02:09:42;;;;;;;1.20;0.88;;;20.70;45.10;;;;;;5053018;28;20030;-34
2021/05/03 02:12:08;;;;;;;2.10;1.00;;;20.70;45.20;;;;;;5053547;28;20025;-35
2021/05/03 02:14:36;;;;;;;2.42;1.00;;;20.80;45.20;;;;;;5052010;28;20028;-35
2021/05/03 02:17:01;;;;;;;1.63;0.90;;;20.80;45.20;;;;;;5053190;28;20061;-34
2021/05/03 02:19:27;;;;;;;2.45;1.25;;;20.70;45.10;;;;;;5047927;28;20098;-35
2021/05/03 02:21:52;;;;;;;1.65;1.13;;;20.80;45.20;;;;;;5053269;28;20087;-35
2021/05/03 02:24:19;;;;;;;1.67;0.90;;;20.80;45.10;;;;;;5053001;28;20098;-34
2021/05/03 02:26:45;;;;;;;1.45;1.10;;;20.80;45.10;;;;;;5034648;28;20029;-35
2021/05/03 02:29:10;;;;;;;2.25;0.90;;;20.80;45.10;;;;;;5052647;28;20028;-35
2021/05/03 02:31:36;;;;;;;2.22;0.95;;;20.80;45.10;;;;;;5052288;28;20033;-35
2021/05/03 02:34:02;;;;;;;1.08;0.80;;;20.70;45.10;;;;;;5052744;28;20067;-34
2021/05/03 02:36:27;;;;;;;1.30;1.17;;;20.80;45.10;;;;;;5034501;28;20024;-35
2021/05/03 02:38:53;;;;;;;1.45;0.93;;;20.80;45.10;;;;;;5052768;28;20385;-34
2021/05/03 02:41:19;;;;;;;1.63;1.00;;;20.70;45.00;;;;;;5034358;28;20029;-35
2021/05/03 02:43:44;;;;;;;1.45;1.00;;;20.80;45.10;;;;;;5051936;28;20028;-34
2021/05/03 02:46:10;;;;;;;1.27;1.13;;;20.70;45.00;;;;;;5035034;28;20075;-35
2021/05/03 02:48:36;;;;;;;0.80;0.70;;;20.80;45.10;;;;;;5051912;28;20029;-34
2021/05/03 02:51:02;;;;;;;1.15;0.90;;;20.70;45.00;;;;;;5034974;28;20032;-34
2021/05/03 02:53:28;;;;;;;1.88;1.13;;;20.70;45.00;;;;;;5051867;28;20053;-35
2021/05/03 02:55:53;;;;;;;1.40;0.90;;;20.70;45.00;;;;;;5052461;28;20493;-35
2021/05/03 02:58:20;;;;;;;1.23;0.98;;;20.80;45.00;;;;;;5034823;28;20473;-34
2021/05/03 03:00:45;;;;;;;1.10;1.00;;;20.80;45.00;;;;;;5033943;28;20494;-34
2021/05/03 03:03:11;;;;;;;2.25;1.30;;;20.80;45.00;;;;;;5034633;28;20069;-34
2021/05/03 03:05:37;;;;;;;1.95;1.65;;;20.70;44.90;;;;;;5051357;28;20024;-35
2021/05/03 03:08:04;;;;;;;1.90;1.17;;;20.80;44.90;;;;;;5052565;28;20048;-35
2021/05/03 03:10:30;;;;;;;1.48;1.00;;;20.80;44.90;;;;;;5051650;28;20104;-34
2021/05/03 03:13:02;;;;;;;1.20;1.00;;;20.70;44.90;;;;;;5048862;28;20041;-35
2021/05/03 03:15:31;;;;;;;1.40;1.17;;;20.80;44.90;;;;;;5032701;28;20074;-35
2021/05/03 03:17:57;;;;;;;1.70;1.25;;;20.80;44.90;;;;;;5034409;28;20071;-35
2021/05/03 03:20:22;;;;;;;1.58;1.25;;;20.80;44.80;;;;;;5052357;28;20450;-35
2021/05/03 03:22:48;;;;;;;1.17;1.08;;;20.80;44.90;;;;;;5051264;28;20045;-35
2021/05/03 03:25:16;;;;;;;1.98;1.30;;;20.80;44.80;;;;;;5034423;28;20099;-34
2021/05/03 03:27:42;;;;;;;1.60;1.00;;;20.80;44.80;;;;;;5051435;28;20025;-35
2021/05/03 03:30:10;;;;;;;1.45;1.20;;;20.80;44.80;;;;;;5051963;28;20490;-35
2021/05/03 03:32:41;;;;;;;1.58;0.88;;;20.80;44.70;;;;;;5051395;28;20024;-35
2021/05/03 03:35:07;;;;;;;1.42;1.05;;;20.80;44.70;;;;;;5052099;28;20036;-35
2021/05/03 03:37:33;;;;;;;1.20;1.10;;;20.80;44.70;;;;;;5033547;28;20504;-35
2021/05/03 03:39:59;;;;;;;2.65;0.90;;;20.80;44.70;;;;;;5052285;28;20027;-35
2021/05/03 03:42:24;;;;;;;1.25;0.90;;;20.80;44.70;;;;;;5033630;28;20033;-47
2021/05/03 03:44:50;;;;;;;1.40;1.00;;;20.80;44.70;;;;;;5033456;28;20029;-34
2021/05/03 03:47:16;;;;;;;1.98;1.00;;;20.80;44.70;;;;;;5052277;28;20048;-35
2021/05/03 03:49:41;;;;;;;1.55;0.98;;;20.80;44.60;;;;;;5050784;28;20025;-35
2021/05/03 03:52:07;;;;;;;1.20;0.90;;;20.80;44.60;;;;;;5051294;28;20078;-35
2021/05/03 03:54:33;;;;;;;1.38;0.93;;;20.80;44.60;;;;;;5050747;28;20033;-35
2021/05/03 03:56:58;;;;;;;2.20;1.00;;;20.80;44.60;;;;;;5051990;28;20029;-35
2021/05/03 03:59:24;;;;;;;2.50;1.05;;;20.80;44.60;;;;;;5033592;28;20021;-46
2021/05/03 04:01:50;;;;;;;1.35;0.95;;;20.80;44.60;;;;;;5051192;28;20032;-35
2021/05/03 04:04:21;;;;;;;1.27;1.00;;;20.80;44.60;;;;;;5052131;28;20471;-35
2021/05/03 04:06:55;;;;;;;1.80;1.03;;;20.80;44.60;;;;;;5048122;28;20036;-39
2021/05/03 04:12:36;;;;;;;1.92;1.00;;;20.80;44.50;;;;;;5050775;28;20124;-35
2021/05/03 04:25:40;;;;;;;1.25;0.80;;;20.80;44.40;;;;;;5050595;28;20032;-34
2021/05/03 04:28:07;;;;;;;1.20;0.90;;;20.80;44.40;;;;;;5033750;28;20123;-35
2021/05/03 04:30:34;;;;;;;1.52;0.90;;;20.80;44.40;;;;;;5050356;28;20109;-35
2021/05/03 04:33:00;;;;;;;1.55;1.20;;;20.80;44.40;;;;;;5033919;28;20033;-35
2021/05/03 04:35:26;;;;;;;0.90;0.80;;;20.80;44.40;;;;;;5050992;28;20025;-46
2021/05/03 04:37:52;;;;;;;1.30;1.02;;;20.80;44.40;;;;;;5050848;28;20485;-34
2021/05/03 04:40:18;;;;;;;1.33;0.90;;;20.80;44.30;;;;;;5051155;28;20104;-35
2021/05/03 04:42:44;;;;;;;3.03;1.08;;;20.80;44.30;;;;;;5032747;28;20529;-35
2021/05/03 04:45:11;;;;;;;1.40;0.98;;;20.80;44.30;;;;;;5033267;28;20784;-35
2021/05/03 04:47:38;;;;;;;1.58;1.10;;;20.80;44.30;;;;;;5050373;28;20025;-35
2021/05/03 04:50:05;;;;;;;1.75;0.80;;;20.80;44.30;;;;;;5051752;28;20029;-36
2021/05/03 04:52:31;;;;;;;1.25;0.90;;;20.80;44.30;;;;;;5049836;28;20045;-35
2021/05/03 04:54:57;;;;;;;1.02;0.93;;;20.80;44.30;;;;;;5051368;28;20116;-34
2021/05/03 04:57:23;;;;;;;1.45;0.90;;;20.80;44.30;;;;;;5033141;28;20112;-34
2021/05/03 04:59:48;;;;;;;1.40;0.93;;;20.80;44.20;;;;;;5032562;28;20155;-34
2021/05/03 05:02:14;;;;;;;2.60;1.20;;;20.80;44.30;;;;;;5030753;28;20469;-35
2021/05/03 05:04:40;;;;;;;1.25;0.93;;;20.80;44.30;;;;;;5051570;28;20129;-35
2021/05/03 05:07:05;;;;;;;1.00;0.90;;;20.80;44.20;;;;;;5054604;28;20032;-35
2021/05/03 05:09:31;;;;;;;1.20;1.00;;;20.80;44.20;;;;;;5053798;28;20032;-35
2021/05/03 05:11:57;;;;;;;1.05;0.95;;;20.80;44.20;;;;;;5054385;28;20083;-34
2021/05/03 05:14:22;;;;;;;1.17;1.05;;;20.80;44.20;;;;;;5036813;28;20450;-35
2021/05/03 05:16:49;;;;;;;1.23;1.00;;;20.80;44.20;;;;;;5052975;28;20029;-35
2021/05/03 05:19:15;;;;;;;1.83;1.15;;;20.80;44.20;;;;;;5054716;28;20029;-35
2021/05/03 05:21:41;;;;;;;1.55;1.17;;;20.80;44.20;;;;;;5052464;28;20029;-35
2021/05/03 05:24:07;;;;;;;1.10;1.00;;;20.80;44.20;;;;;;5054387;28;20401;-34
2021/05/03 05:26:33;;;;;;;1.50;0.90;;;20.80;44.10;;;;;;5053292;28;20100;-46
2021/05/03 05:28:59;;;;;;;1.23;1.00;;;20.80;44.10;;;;;;5036605;28;20027;-36
2021/05/03 05:31:25;;;;;;;2.40;1.10;;;20.80;44.10;;;;;;5053838;28;20025;-34
2021/05/03 05:33:50;;;;;;;2.45;1.05;;;20.80;44.10;;;;;;5053654;28;20044;-35
2021/05/03 05:36:16;;;;;;;1.52;1.13;;;20.80;44.10;;;;;;5036460;28;20461;-35
2021/05/03 05:38:42;;;;;;;1.50;1.23;;;20.80;44.20;;;;;;5053429;28;20079;-35
2021/05/03 05:41:10;;;;;;;1.88;1.35;;;20.90;44.40;;;;;;5054032;28;20032;-34
2021/05/03 05:43:35;;;;;;;1.83;1.10;;;20.90;44.70;;;;;;5053035;28;20036;-35
2021/05/03 05:46:01;;;;;;;2.83;1.33;;;20.90;44.70;;;;;;5036089;28;20021;-35
2021/05/03 05:48:28;;;;;;;3.38;1.25;;;20.80;44.80;;;;;;5053948;28;20389;-34
2021/05/03 05:50:53;;;;;;;3.35;1.10;;;20.90;44.80;;;;;;5053179;28;20025;-35
2021/05/03 05:53:19;;;;;;;3.25;2.03;;;20.90;45.50;;;;;;5053308;28;20060;-35
2021/05/03 05:55:45;;;;;;;2.80;1.50;;;20.90;44.90;;;;;;5028833;28;20118;-35
2021/05/03 05:58:10;;;;;;;3.50;1.33;;;20.90;44.90;;;;;;5053044;28;20028;-35
2021/05/03 06:00:36;;;;;;;3.92;1.35;;;20.90;45.00;;;;;;5052518;28;20075;-35
2021/05/03 06:03:02;;;;;;;6.53;1.15;;;20.90;45.10;;;;;;5052955;28;20065;-35
2021/05/03 06:05:27;;;;;;;3.17;1.25;;;20.90;45.30;;;;;;5053284;28;20087;-35
2021/05/03 06:07:53;;;;;;;4.18;1.50;;;20.90;45.20;;;;;;5052850;28;20432;-34
2021/05/03 06:10:19;;;;;;;4.68;1.40;;;20.90;45.50;;;;;;5053073;28;20059;-35
2021/05/03 06:12:44;;;;;;;4.13;1.20;;;20.90;45.40;;;;;;5052541;28;20485;-35
2021/05/03 06:15:10;;;;;;;4.63;1.17;;;20.90;45.40;;;;;;5014780;28;20028;-35
2021/05/03 06:17:36;;;;;;;5.93;3.88;;;20.90;45.40;;;;;;5032456;28;20646;-36
2021/05/03 06:20:02;;;;;;;4.53;3.97;;;20.20;36.50;;;;;;5034100;28;20025;-35
2021/05/03 06:22:30;;;;;;;7.43;4.38;;;18.50;36.80;;;;;;5052670;28;20033;-35
2021/05/03 06:24:56;;;;;;;7.68;4.45;;;17.60;38.60;;;;;;5052426;28;20095;-35
2021/05/03 06:27:21;;;;;;;5.47;4.03;;;17.20;38.90;;;;;;5035219;28;20450;-35
2021/05/03 06:29:47;;;;;;;6.45;3.80;;;16.90;39.20;;;;;;5034750;28;20025;-35
2021/05/03 06:32:13;;;;;;;5.32;3.45;;;16.70;39.30;;;;;;5052480;28;20072;-34
2021/05/03 06:34:38;;;;;;;6.40;2.95;;;17.50;38.90;;;;;;5034096;28;20386;-35
2021/05/03 06:37:04;;;;;;;3.85;2.50;;;18.50;38.40;;;;;;5034686;28;20488;-35
2021/05/03 06:39:30;;;;;;;1.95;1.70;;;19.10;38.50;;;;;;5034663;28;20025;-45
2021/05/03 06:41:56;;;;;;;3.50;2.35;;;19.40;38.60;;;;;;5051399;28;20041;-35
2021/05/03 06:44:22;;;;;;;3.00;1.70;;;19.70;38.90;;;;;;5034661;28;20120;-35
2021/05/03 06:46:48;;;;;;;1.88;1.67;;;19.80;38.90;;;;;;5016781;28;20171;-35
2021/05/03 06:49:14;;;;;;;1.77;1.40;;;19.90;38.90;;;;;;5014276;28;20029;-35
2021/05/03 06:51:39;;;;;;;2.00;1.45;;;20.00;39.30;;;;;;5038730;28;20025;-46
2021/05/03 06:54:05;;;;;;;1.67;1.35;;;20.10;39.40;;;;;;5052623;28;20500;-34
2021/05/03 06:56:31;;;;;;;2.78;1.80;;;20.10;39.50;;;;;;5053028;28;20529;-48
2021/05/03 06:58:57;;;;;;;2.38;1.52;;;20.20;39.70;;;;;;5051877;28;20033;-35
2021/05/03 07:01:22;;;;;;;2.10;1.70;;;20.20;39.90;;;;;;5052317;28;20373;-34
2021/05/03 07:03:49;;;;;;;2.55;1.33;;;20.30;40.00;;;;;;5051516;28;20112;-34
2021/05/03 07:06:15;;;;;;;2.78;1.38;;;20.30;40.00;;;;;;5034508;28;20051;-34
2021/05/03 07:08:42;;;;;;;1.88;1.17;;;20.30;40.10;;;;;;5051462;28;20025;-35
2021/05/03 07:11:17;;;;;;;1.83;1.25;;;20.30;40.20;;;;;;5034519;28;20080;-35
2021/05/03 07:13:43;;;;;;;2.08;1.50;;;20.40;40.30;;;;;;5033850;28;20036;-34
2021/05/03 07:16:08;;;;;;;2.17;1.48;;;20.40;40.20;;;;;;5043675;28;20025;-34
2021/05/03 07:18:34;;;;;;;3.72;1.35;;;20.40;40.30;;;;;;5051317;28;20059;-46
2021/05/03 07:21:00;;;;;;;3.60;1.20;;;20.40;40.40;;;;;;5052251;28;20108;-35
2021/05/03 07:23:26;;;;;;;1.70;1.13;;;20.50;40.50;;;;;;5033601;28;20500;-35
2021/05/03 07:25:52;;;;;;;2.08;1.55;;;20.50;40.60;;;;;;5051311;28;20044;-35
2021/05/03 07:28:17;;;;;;;3.00;1.25;;;20.50;40.60;;;;;;5033609;28;20032;-34
2021/05/03 07:30:43;;;;;;;2.85;1.60;;;20.50;40.70;;;;;;5033130;28;20025;-35
2021/05/03 07:33:09;;;;;;;1.73;1.40;;;20.50;40.60;;;;;;5051926;28;20029;-35
2021/05/03 07:35:35;;;;;;;2.50;1.60;;;20.60;40.70;;;;;;5033447;28;20040;-47
2021/05/03 07:38:00;;;;;;;2.85;1.27;;;20.60;40.90;;;;;;5033300;28;20028;-37
2021/05/03 07:40:26;;;;;;;3.72;1.30;;;20.60;40.80;;;;;;5033486;28;20142;-35
2021/05/03 07:42:52;;;;;;;3.70;1.45;;;20.60;40.80;;;;;;5033091;28;20358;-35
2021/05/03 07:45:18;;;;;;;2.05;1.50;;;20.60;41.00;;;;;;5046634;28;20024;-35
2021/05/03 07:47:45;;;;;;;3.40;1.50;;;20.70;40.90;;;;;;5033113;28;20462;-35
2021/05/03 07:50:13;;;;;;;2.47;1.52;;;20.70;41.00;;;;;;5051692;28;20021;-35
2021/05/03 07:52:39;;;;;;;1.70;1.17;;;20.60;40.90;;;;;;5032657;28;20056;-42
2021/05/03 07:55:06;;;;;;;2.20;1.58;;;20.70;41.10;;;;;;5033916;28;20029;-35
2021/05/03 07:57:32;;;;;;;2.17;1.30;;;20.70;41.00;;;;;;5051344;28;20533;-35
2021/05/03 07:59:58;;;;;;;1.45;1.23;;;20.70;41.00;;;;;;5020557;28;20137;-35
2021/05/03 08:02:24;;;;;;;2.38;1.50;;;20.70;41.10;;;;;;5031606;28;20120;-34
2021/05/03 08:04:51;;;;;;;2.03;1.40;;;20.70;41.10;;;;;;5030539;28;20438;-37
2021/05/03 08:07:17;;;;;;;1.83;1.50;;;20.70;41.10;;;;;;5048498;28;20037;-34
2021/05/03 08:09:44;;;;;;;1.60;1.13;;;20.70;41.10;;;;;;5032642;28;20394;-34
2021/05/03 08:12:10;;;;;;;1.95;1.30;;;20.70;41.10;;;;;;5051733;28;20509;-35
2021/05/03 08:14:37;;;;;;;1.55;1.33;;;20.70;41.10;;;;;;5051176;28;20075;-45
2021/05/03 08:17:08;;;;;;;1.90;1.27;;;20.70;41.10;;;;;;5033240;28;20035;-35
2021/05/03 08:19:34;;;;;;;3.03;1.70;;;20.80;41.10;;;;;;5033506;28;20033;-40
2021/05/03 08:22:01;;;;;;;2.17;1.40;;;20.80;41.10;;;;;;5050842;28;20041;-35
2021/05/03 08:24:28;;;;;;;1.63;1.45;;;20.80;41.10;;;;;;5051151;28;20489;-34
2021/05/03 08:26:54;;;;;;;1.42;1.20;;;20.80;41.10;;;;;;5032793;28;20029;-35
2021/05/03 08:29:20;;;;;;;2.17;1.55;;;20.80;41.00;;;;;;5051322;28;20025;-43
2021/05/03 08:31:46;;;;;;;1.60;1.35;;;20.80;41.00;;;;;;5032801;28;20029;-35
2021/05/03 08:34:12;;;;;;;1.80;1.40;;;20.80;40.80;;;;;;5050619;28;20100;-35
2021/05/03 08:36:38;;;;;;;2.25;1.50;;;20.80;41.00;;;;;;5050512;28;20112;-47
2021/05/03 08:39:05;;;;;;;1.98;1.30;;;20.80;40.90;;;;;;5030797;28;20060;-35
2021/05/03 08:41:32;;;;;;;2.45;1.30;;;20.80;40.80;;;;;;5055028;28;20036;-35
2021/05/03 08:43:57;;;;;;;1.90;1.33;;;20.80;40.80;;;;;;5054275;28;20079;-34
2021/05/03 08:46:27;;;;;;;1.73;1.42;;;20.80;40.80;;;;;;5054920;28;20028;-34
2021/05/03 08:49:17;;;;;;;2.40;1.30;;;20.80;40.80;;;;;;5036137;28;20419;-35
2021/05/03 08:54:33;;;;;;;2.55;1.20;;;20.90;40.90;;;;;;5034993;28;20128;-35
2021/05/03 08:56:59;;;;;;;1.85;1.25;;;20.80;40.90;;;;;;5017862;28;20272;-34
2021/05/03 08:59:25;;;;;;;1.90;1.33;;;20.90;40.90;;;;;;5035043;28;20029;-34
2021/05/03 09:01:52;;;;;;;3.03;1.38;;;20.90;40.80;;;;;;5034055;28;20042;-34
2021/05/03 09:04:18;;;;;;;1.75;1.38;;;20.90;40.90;;;;;;5034807;28;20025;-35
2021/05/03 09:07:11;;;;;;;1.85;1.40;;;20.90;40.80;;;;;;5033788;28;20022;-35
2021/05/03 09:09:37;;;;;;;1.90;1.33;;;20.90;40.80;;;;;;5017574;28;20395;-44
2021/05/03 09:12:10;;;;;;;2.05;1.40;;;20.90;40.90;;;;;;5034316;28;20080;-35
2021/05/03 09:15:02;;;;;;;3.20;1.60;;;20.90;40.70;;;;;;5016952;28;20052;-35
2021/05/03 09:17:39;;;;;;;4.07;1.77;;;20.90;40.90;;;;;;4973713;28;20037;-34
2021/05/03 09:20:09;;;;;;;1.38;1.17;;;21.00;40.80;;;;;;5014487;28;20030;-34
2021/05/03 09:23:06;;;;;;;1.42;1.23;;;20.90;40.70;;;;;;5009348;28;20038;-35
2021/05/03 09:25:34;;;;;;;2.25;1.30;;;21.00;40.80;;;;;;5032032;28;20055;-34
2021/05/03 09:28:39;;;;;;;1.58;1.20;;;21.00;40.80;;;;;;4991955;28;20126;-35
2021/05/03 09:31:04;;;;;;;1.45;1.17;;;21.00;40.70;;;;;;4979604;28;20045;-35
2021/05/03 09:33:35;;;;;;;2.25;1.30;;;21.00;41.00;;;;;;4990252;28;20034;-35
2021/05/03 09:36:09;;;;;;;1.60;1.05;;;21.00;41.10;;;;;;4975445;28;20026;-34
2021/05/03 09:38:44;;;;;;;1.95;1.30;;;21.00;41.50;;;;;;4992412;28;20055;-34
2021/05/03 09:41:19;;;;;;;3.15;1.23;;;21.00;41.80;;;;;;4975908;28;20027;-35
2021/05/03 09:44:03;;;;;;;1.70;1.10;;;21.00;42.10;;;;;;4984045;28;20515;-35
2021/05/03 09:46:33;;;;;;;3.17;1.30;;;21.00;41.80;;;;;;4992681;28;20095;-35
2021/05/03 09:49:09;;;;;;;2.58;1.20;;;21.00;42.00;;;;;;4991996;28;20070;-35
2021/05/03 09:51:41;;;;;;;1.95;1.30;;;21.00;42.00;;;;;;4989901;28;20034;-35
2021/05/03 09:54:13;;;;;;;2.50;1.35;;;21.10;42.10;;;;;;5012414;28;20052;-43
2021/05/03 09:56:45;;;;;;;;;;;21.00;42.10;;;;;;5012282;28;20137;-45
2021/05/03 09:59:50;;;;;;;;;;;21.10;42.40;;;;;;5019301;28;19905;-34
2021/05/03 10:02:33;;;;;;;2.67;1.65;;;21.10;42.50;;;;;;4972565;28;20367;-34
2021/05/03 10:05:08;;;;;;;1.95;0.90;;;21.10;42.60;;;;;;5047482;28;20628;-35
2021/05/03 10:07:37;;;;;;;3.95;1.42;;;21.10;42.70;;;;;;5034016;28;20030;-34
2021/05/03 10:10:08;;;;;;;2.47;1.13;;;21.10;42.60;;;;;;5032925;28;20105;-34
2021/05/03 10:12:35;;;;;;;1.48;1.20;;;21.10;42.70;;;;;;5016121;28;20030;-34
2021/05/03 10:15:06;;;;;;;1.90;1.38;;;21.10;42.80;;;;;;5014982;28;20134;-34
2021/05/03 10:17:33;;;;;;;5.85;1.75;;;21.10;42.80;;;;;;5033695;28;20040;-34
2021/05/03 10:20:00;;;;;;;1.60;1.02;;;21.10;42.80;;;;;;5032767;28;20087;-34
2021/05/03 10:22:28;;;;;;;3.17;1.00;;;21.10;42.90;;;;;;5033124;28;20050;-34
2021/05/03 10:25:04;;;;;;;1.45;1.00;;;21.10;42.90;;;;;;5032545;28;20044;-34
2021/05/03 10:27:31;;;;;;;3.80;1.20;;;21.10;43.00;;;;;;5011981;28;20075;-35
2021/05/03 10:30:11;;;;;;;1.00;0.90;;;21.10;43.00;;;;;;5032395;28;20033;-35
2021/05/03 10:32:38;;;;;;;1.73;1.00;;;21.10;43.00;;;;;;5015667;28;20370;-34
2021/05/03 10:35:07;;;;;;;2.40;1.67;;;21.10;43.00;;;;;;5014777;28;20032;-35
2021/05/03 10:37:33;;;;;;;1.42;1.17;;;21.10;43.10;;;;;;5032756;28;20467;-35
2021/05/03 10:40:07;;;;;;;4.25;1.40;;;21.20;43.10;;;;;;5032353;28;20133;-35
2021/05/03 10:42:34;;;;;;;1.73;1.08;;;21.20;43.20;;;;;;5032859;28;20080;-35
2021/05/03 10:45:19;;;;;;;2.35;0.90;;;21.10;43.10;;;;;;5031930;28;20099;-37
2021/05/03 10:47:52;;;;;;;1.58;1.10;;;21.10;43.20;;;;;;5032416;28;20117;-35
2021/05/03 10:50:24;;;;;;;2.08;1.27;;;21.10;43.20;;;;;;5016361;28;20171;-34
2021/05/03 10:52:51;;;;;;;;;;;21.10;43.20;;;;;;5031992;28;20041;-46
2021/05/03 10:55:18;;;;;;;1.00;0.90;;;21.10;43.20;;;;;;5015231;28;20015;-34
2021/05/03 10:57:58;;;;;;;1.40;1.10;;;21.10;43.30;;;;;;5032040;28;20022;-38
2021/05/03 11:00:33;;;;;;;1.30;0.90;;;21.20;43.40;;;;;;5026376;28;20029;-35
2021/05/03 11:02:59;;;;;;;1.30;0.90;;;21.10;43.30;;;;;;5051228;28;20036;-34
2021/05/03 11:05:27;;;;;;;1.92;1.00;;;21.20;43.40;;;;;;5050860;28;20035;-35
2021/05/03 11:08:05;;;;;;;1.92;0.88;;;21.10;43.30;;;;;;5013927;28;20029;-43
2021/05/03 11:11:07;;;;;;;2.17;1.00;;;21.20;43.30;;;;;;5032451;28;20029;-35
2021/05/03 11:13:49;;;;;;;1.52;0.98;;;21.20;43.40;;;;;;5032534;28;20033;-35
2021/05/03 11:16:33;;;;;;;1.60;1.10;;;21.20;43.40;;;;;;5014670;28;20036;-34
2021/05/03 11:19:21;;;;;;;2.38;0.90;;;21.20;43.40;;;;;;5014249;28;20048;-34
2021/05/03 11:21:48;;;;;;;1.08;0.98;;;21.20;43.10;;;;;;5026162;28;20037;-35
2021/05/03 11:24:17;;;;;;;1.38;1.00;;;21.20;42.80;;;;;;5014421;28;20537;-34
2021/05/03 11:26:58;;;;;;;2.80;0.93;;;21.20;43.00;;;;;;5031498;28;20038;-47
2021/05/03 11:29:30;;;;;;;2.50;1.17;;;21.20;43.00;;;;;;5032546;28;20520;-34
2021/05/03 11:31:56;;;;;;;2.55;1.05;;;21.20;43.20;;;;;;5031300;28;20048;-34
2021/05/03 11:34:39;;;;;;;2.53;1.05;;;21.20;43.10;;;;;;5032321;28;20026;-35
2021/05/03 11:37:08;;;;;;;2.20;1.00;;;21.20;43.10;;;;;;5030970;28;20033;-34
2021/05/03 11:39:48;;;;;;;1.50;0.93;;;21.20;43.10;;;;;;5032091;28;20025;-35
2021/05/03 11:44:53;;;;;;;1.80;0.93;;;21.20;43.20;;;;;;5031223;28;20500;-35
2021/05/03 11:47:27;;;;;;;3.35;0.82;;;21.20;43.20;;;;;;5032068;28;20026;-34
2021/05/03 11:49:52;;;;;;;2.63;0.95;;;21.20;43.10;;;;;;5038729;28;20061;-46
2021/05/03 11:52:35;;;;;;;1.75;0.80;;;21.20;43.10;;;;;;5034555;28;20469;-34
2021/05/03 11:55:10;;;;;;;;;;;21.20;42.90;;;;;;5052326;28;20028;-34
2021/05/03 11:57:43;;;;;;;1.55;0.90;;;21.20;42.80;;;;;;5051644;28;20312;-35
2021/05/03 12:00:11;;;;;;;1.63;0.90;;;21.20;42.70;;;;;;5051171;28;20036;-34
2021/05/03 12:02:37;;;;;;;1.65;0.90;;;21.20;42.80;;;;;;5033707;28;20037;-34
2021/05/03 12:05:12;;;;;;;1.83;0.95;;;21.20;42.80;;;;;;5033323;28;20032;-34
2021/05/03 12:07:37;;;;;;;2.65;1.20;;;21.20;42.80;;;;;;5033684;28;20025;-35
2021/05/03 12:10:30;;;;;;;1.20;0.90;;;21.20;42.80;;;;;;5050478;28;20075;-34
2021/05/03 12:12:57;;;;;;;;;;;21.20;42.70;;;;;;5046628;28;20103;-34
2021/05/03 12:15:27;;;;;;;1.02;0.90;;;21.20;42.70;;;;;;5047781;28;20338;-34
2021/05/03 12:17:58;;;;;;;0.98;0.80;;;21.20;42.70;;;;;;5054899;28;20094;-34
2021/05/03 12:20:27;;;;;;;1.17;0.80;;;21.20;42.70;;;;;;5037626;28;20021;-34
2021/05/03 12:23:01;;;;;;;0.98;0.70;;;21.20;42.60;;;;;;5036417;28;20056;-34
2021/05/03 12:25:42;;;;;;;1.20;0.80;;;21.20;42.60;;;;;;5037582;28;20037;-37
2021/05/03 12:28:13;;;;;;;1.27;1.13;;;21.20;42.60;;;;;;5054852;28;20036;-34
2021/05/03 12:30:41;;;;;;;1.38;0.80;;;21.20;42.60;;;;;;5037461;28;20091;-34
2021/05/03 12:33:13;;;;;;;0.98;0.80;;;21.20;42.60;;;;;;5054802;28;20039;-34
2021/05/03 12:35:39;;;;;;;0.70;0.60;;;21.20;42.60;;;;;;5037418;28;20029;-36
2021/05/03 12:38:24;;;;;;;1.10;0.80;;;21.20;42.60;;;;;;5036328;28;20024;-34
2021/05/03 12:40:50;;;;;;;1.00;0.85;;;21.20;42.50;;;;;;5036510;28;20029;-35
2021/05/03 12:43:20;;;;;;;1.10;0.70;;;21.20;42.40;;;;;;5037306;28;20040;-34
2021/05/03 12:48:39;;;;;;;3.47;1.00;;;21.20;42.40;;;;;;5074737;28;20064;-34
2021/05/03 12:51:15;;;;;;;1.42;0.80;;;21.20;42.50;;;;;;5074201;28;20029;-34
2021/05/03 12:53:58;;;;;;;2.03;0.88;;;21.20;42.40;;;;;;5074229;28;20050;-35
2021/05/03 12:56:37;;;;;;;1.38;0.75;;;21.20;42.40;;;;;;5057065;28;20378;-34
2021/05/03 13:02:00;;;;;;;0.90;0.60;;;21.20;42.30;;;;;;5074835;28;20115;-34
2021/05/03 13:22:30;;;;;;;0.55;0.50;;;21.20;42.30;;;;;;5053751;28;20036;-34
2021/05/03 13:29:46;;;;;;;1.85;0.82;;;21.20;42.20;;;;;;5054341;28;20044;-34
2021/05/03 13:32:20;;;;;;;0.82;0.68;;;21.20;42.20;;;;;;5035783;28;20033;-35
2021/05/03 13:34:50;;;;;;;0.80;0.70;;;21.20;42.20;;;;;;5036322;28;20021;-34
2021/05/03 13:37:19;;;;;;;1.10;0.85;;;21.20;42.20;;;;;;5036257;28;20029;-34
2021/05/03 13:39:45;;;;;;;1.00;0.73;;;21.20;42.20;;;;;;5036123;28;20035;-35
2021/05/03 13:42:12;;;;;;;0.60;0.57;;;21.20;42.20;;;;;;5053071;28;20033;-35